Time;durP1;ratioP1;P1;durP2;ratioP2;P2;SDS_P1;SDS_P2;PMS_P1;PMS_P2;Temp;Humidity;BMP_temperature;BMP_pressure;BME280_temperature;BME280_humidity;BME280_pressure;Samples;Min_cycle;Max_cycle;Signal;HPM_P1;HPM_P2
2023/07/26 00:01:44;;;;;;;1.90;1.50;;;;;;;14.04;88.24;99958.81;4943932;28;20681;-80
2023/07/26 00:04:11;;;;;;;2.30;1.77;;;;;;;13.99;86.69;99948.41;4954003;28;20100;-80
2023/07/26 00:06:38;;;;;;;4.72;1.90;;;;;;;13.95;85.96;99957.44;4938499;28;20079;-80
2023/07/26 00:09:05;;;;;;;4.63;1.67;;;;;;;14.00;85.39;99954.59;4948611;28;20063;-81
2023/07/26 00:11:32;;;;;;;2.17;1.30;;;;;;;13.96;83.20;99958.31;4997978;28;20397;-80
2023/07/26 00:13:58;;;;;;;9.63;2.20;;;;;;;13.87;84.70;99956.91;4949204;28;20134;-80
2023/07/26 00:16:25;;;;;;;3.70;1.75;;;;;;;13.79;82.14;99965.25;4966824;28;20452;-82
2023/07/26 00:18:52;;;;;;;5.40;1.75;;;;;;;13.88;82.68;99966.63;4949131;28;20541;-81
2023/07/26 00:21:18;;;;;;;4.00;1.70;;;;;;;13.91;83.11;99966.50;4964044;28;20039;-80
2023/07/26 00:23:45;;;;;;;3.88;1.92;;;;;;;13.80;84.46;99974.09;4965001;28;20591;-80
2023/07/26 00:26:12;;;;;;;2.72;1.50;;;;;;;13.66;86.10;99968.50;4965137;28;20043;-80
2023/07/26 00:28:38;;;;;;;8.10;2.08;;;;;;;13.70;86.32;99980.72;4956251;28;20501;-80
2023/07/26 00:31:06;;;;;;;3.05;2.03;;;;;;;13.72;84.49;99981.53;4953227;28;20104;-80
2023/07/26 00:33:32;;;;;;;4.90;1.67;;;;;;;13.54;84.34;99985.84;4985664;28;20043;-80
2023/07/26 00:35:59;;;;;;;2.90;1.55;;;;;;;13.60;85.54;99982.03;4936708;28;20038;-81
2023/07/26 00:38:26;;;;;;;2.88;1.48;;;;;;;13.61;83.46;99981.13;4989885;28;20239;-81
2023/07/26 00:40:55;;;;;;;2.17;1.42;;;;;;;13.53;85.67;99986.75;4942965;28;20057;-80
2023/07/26 00:43:22;;;;;;;4.07;1.63;;;;;;;13.44;87.14;99987.16;4939025;28;20054;-81
2023/07/26 00:45:49;;;;;;;2.40;1.67;;;;;;;13.46;87.39;99983.53;4962866;28;20039;-78
2023/07/26 00:48:16;;;;;;;4.53;1.50;;;;;;;13.39;88.13;99987.38;4990527;28;20081;-78
2023/07/26 00:50:45;;;;;;;3.47;1.60;;;;;;;13.42;88.63;99994.31;4961429;28;20035;-78
2023/07/26 00:53:15;;;;;;;3.15;1.55;;;;;;;13.39;88.84;99987.38;4973863;28;20046;-80
2023/07/26 00:55:43;;;;;;;3.63;1.63;;;;;;;13.33;89.47;99984.09;5002268;28;20408;-81
2023/07/26 00:58:11;;;;;;;3.20;1.60;;;;;;;13.45;88.17;99983.56;4940840;28;20042;-78
2023/07/26 01:00:43;;;;;;;3.40;1.80;;;;;;;13.31;89.43;99985.97;4946252;28;20393;-77
2023/07/26 01:03:10;;;;;;;3.00;1.50;;;;;;;13.30;89.64;99984.25;4967178;28;20054;-80
2023/07/26 01:06:00;;;;;;;6.57;2.33;;;;;;;13.20;89.65;99994.34;4969214;28;20412;-78
2023/07/26 01:08:44;;;;;;;2.42;1.75;;;;;;;13.11;90.05;99984.97;4954290;28;20492;-78
2023/07/26 01:11:38;;;;;;;6.30;1.67;;;;;;;13.08;92.19;99989.53;4969766;28;20058;-78
2023/07/26 01:14:15;;;;;;;2.65;1.63;;;;;;;13.02;93.67;99990.66;4987114;28;20490;-80
2023/07/26 01:16:43;;;;;;;3.28;1.60;;;;;;;13.09;92.76;99991.25;4963607;28;20059;-79
2023/07/26 01:19:09;;;;;;;5.50;1.90;;;;;;;12.93;93.88;99986.59;4953711;28;21967;-79
2023/07/26 01:21:36;;;;;;;4.30;1.60;;;;;;;12.95;92.22;99983.91;4983861;28;20313;-79
2023/07/26 01:24:03;;;;;;;4.28;1.85;;;;;;;12.75;94.32;99981.16;4985690;28;20039;-79
2023/07/26 01:26:30;;;;;;;1.67;1.52;;;;;;;12.61;95.94;99987.00;4971982;28;20043;-79
2023/07/26 01:28:57;;;;;;;3.20;1.77;;;;;;;12.72;96.30;99984.81;4938575;28;20047;-78
2023/07/26 01:31:24;;;;;;;3.03;1.90;;;;;;;12.59;95.88;99991.50;4955424;28;20053;-81
2023/07/26 01:33:52;;;;;;;6.63;2.38;;;;;;;12.51;96.93;99989.16;5023816;28;20576;-81
2023/07/26 01:36:23;;;;;;;3.22;1.77;;;;;;;12.54;97.71;99993.50;4950728;28;20126;-81
2023/07/26 01:38:50;;;;;;;2.97;1.92;;;;;;;12.42;97.81;99993.97;4962634;28;20411;-80
2023/07/26 01:41:17;;;;;;;4.13;2.50;;;;;;;12.44;97.39;99998.25;4957492;28;20038;-79
2023/07/26 01:43:44;;;;;;;2.58;1.40;;;;;;;12.24;99.04;100004.34;4955776;28;20084;-79
2023/07/26 01:46:15;;;;;;;3.50;2.05;;;;;;;12.18;99.44;100001.91;4954518;28;20039;-81
2023/07/26 01:48:41;;;;;;;4.55;1.85;;;;;;;12.06;99.68;100002.38;4989536;28;20496;-81
2023/07/26 01:51:11;;;;;;;3.33;1.83;;;;;;;12.02;100.00;100003.41;4996667;28;20124;-81
2023/07/26 01:53:38;;;;;;;2.50;1.60;;;;;;;12.01;100.00;100004.31;4964941;28;20046;-81
2023/07/26 01:56:05;;;;;;;3.63;1.92;;;;;;;11.94;100.00;100005.47;4979749;28;20043;-82
2023/07/26 01:58:32;;;;;;;3.92;2.10;;;;;;;11.81;100.00;100013.00;4956591;28;20050;-82
2023/07/26 02:01:02;;;;;;;3.08;1.98;;;;;;;11.79;100.00;100017.47;4984171;28;20089;-81
2023/07/26 02:03:29;;;;;;;3.13;1.80;;;;;;;11.68;100.00;100014.31;4985072;28;20086;-81
2023/07/26 02:05:56;;;;;;;3.85;2.45;;;;;;;11.77;100.00;100013.97;4986375;28;20034;-81
2023/07/26 02:08:22;;;;;;;2.83;1.95;;;;;;;11.61;100.00;100004.88;4975927;28;20056;-81
2023/07/26 02:10:49;;;;;;;3.30;1.80;;;;;;;11.60;100.00;100016.34;4985859;28;20049;-82
2023/07/26 02:13:16;;;;;;;3.40;2.05;;;;;;;11.59;100.00;100018.13;4947921;28;20043;-80
2023/07/26 02:15:43;;;;;;;3.47;1.80;;;;;;;11.49;100.00;100030.81;4979851;28;20504;-82
2023/07/26 02:18:09;;;;;;;3.33;2.10;;;;;;;11.44;100.00;100031.91;4946698;28;20512;-81
2023/07/26 02:20:37;;;;;;;3.35;1.90;;;;;;;11.36;100.00;100028.66;4983043;28;20066;-82
2023/07/26 02:23:05;;;;;;;2.35;1.73;;;;;;;11.30;100.00;100034.16;4977934;28;20506;-81
2023/07/26 02:25:31;;;;;;;4.40;2.15;;;;;;;11.29;100.00;100035.94;4978907;28;22204;-81
2023/07/26 02:27:58;;;;;;;5.13;2.15;;;;;;;11.20;100.00;100041.53;4956290;28;20061;-81
2023/07/26 02:30:25;;;;;;;4.95;2.30;;;;;;;11.20;100.00;100042.38;4980887;28;20462;-81
2023/07/26 02:32:52;;;;;;;2.58;1.90;;;;;;;11.07;100.00;100030.47;4962683;28;20053;-81
2023/07/26 02:35:19;;;;;;;9.95;2.80;;;;;;;11.09;100.00;100038.34;4930070;28;20724;-81
2023/07/26 02:37:45;;;;;;;3.75;2.35;;;;;;;10.97;100.00;100031.69;4979178;28;20783;-81
2023/07/26 02:40:12;;;;;;;3.58;2.15;;;;;;;11.09;100.00;100039.22;4984748;28;20035;-81
2023/07/26 02:42:39;;;;;;;5.25;3.28;;;;;;;11.00;100.00;100040.38;4952310;28;20533;-82
2023/07/26 02:45:07;;;;;;;3.13;2.28;;;;;;;10.98;100.00;100039.56;4964228;28;20056;-81
2023/07/26 02:47:33;;;;;;;4.10;2.50;;;;;;;10.98;100.00;100039.56;4962229;28;20056;-81
2023/07/26 02:50:03;;;;;;;6.18;2.40;;;;;;;10.98;100.00;100036.94;4958872;28;20060;-82
2023/07/26 02:52:31;;;;;;;3.83;2.08;;;;;;;10.98;100.00;100036.94;4979578;28;20532;-82
2023/07/26 02:54:58;;;;;;;2.90;2.15;;;;;;;10.95;100.00;100036.16;4989408;28;20094;-81
2023/07/26 02:57:25;;;;;;;4.03;2.40;;;;;;;10.91;100.00;100040.66;4963533;28;20038;-81
2023/07/26 02:59:51;;;;;;;5.82;2.42;;;;;;;10.91;100.00;100045.09;4977965;28;20041;-81
2023/07/26 03:02:18;;;;;;;4.28;2.33;;;;;;;10.88;100.00;100045.19;4949875;28;20069;-81
2023/07/26 03:04:45;;;;;;;4.32;2.75;;;;;;;10.88;100.00;100048.72;4936639;28;20100;-81
2023/07/26 03:07:13;;;;;;;8.10;2.85;;;;;;;10.89;100.00;100060.13;4961128;28;20046;-81
2023/07/26 03:09:42;;;;;;;5.43;2.92;;;;;;;10.83;100.00;100055.91;4989810;28;20519;-81
2023/07/26 03:12:09;;;;;;;5.25;2.83;;;;;;;10.83;100.00;100055.03;4971491;28;20046;-81
2023/07/26 03:14:40;;;;;;;3.00;2.55;;;;;;;10.82;100.00;100061.25;4948984;28;20039;-81
2023/07/26 03:17:11;;;;;;;6.50;3.13;;;;;;;10.71;100.00;100065.09;4937285;28;20039;-81
2023/07/26 03:19:48;;;;;;;3.72;2.80;;;;;;;10.74;100.00;100061.47;4965100;28;20485;-82
2023/07/26 03:22:18;;;;;;;3.25;2.75;;;;;;;10.75;100.00;100064.97;4953136;28;20051;-81
2023/07/26 03:24:45;;;;;;;5.25;2.83;;;;;;;10.73;100.00;100072.09;4942556;28;20095;-82
2023/07/26 03:27:11;;;;;;;5.07;2.97;;;;;;;10.77;100.00;100068.47;4956688;28;20042;-81
2023/07/26 03:29:38;;;;;;;5.05;2.80;;;;;;;10.79;100.00;100082.47;4999871;28;20053;-81
2023/07/26 03:32:06;;;;;;;7.07;3.05;;;;;;;10.75;100.00;100080.84;4969800;28;20074;-81
2023/07/26 03:34:32;;;;;;;7.93;3.20;;;;;;;10.85;100.00;100082.31;4972513;28;20043;-81
2023/07/26 03:37:00;;;;;;;8.93;3.22;;;;;;;10.78;100.00;100080.75;4934977;28;20051;-81
2023/07/26 03:39:27;;;;;;;4.10;2.92;;;;;;;10.74;100.00;100079.09;4969401;28;20481;-82
2023/07/26 03:41:54;;;;;;;4.00;2.83;;;;;;;10.76;100.00;100075.50;4951234;28;20051;-81
2023/07/26 03:44:20;;;;;;;4.22;2.88;;;;;;;10.81;100.00;100080.66;4967977;28;20112;-81
2023/07/26 03:46:47;;;;;;;5.15;3.30;;;;;;;10.92;100.00;100076.75;5024579;28;20043;-81
2023/07/26 03:49:14;;;;;;;4.18;2.90;;;;;;;10.91;100.00;100090.03;4938165;28;20043;-81
2023/07/26 03:51:41;;;;;;;5.32;2.88;;;;;;;10.86;100.00;100089.31;4948405;28;20043;-81
2023/07/26 03:54:08;;;;;;;3.20;2.67;;;;;;;10.89;100.00;100105.06;4953304;28;20424;-82
2023/07/26 03:56:35;;;;;;;5.28;3.28;;;;;;;10.88;100.00;100105.97;4969626;28;20092;-80
2023/07/26 03:59:02;;;;;;;4.22;3.00;;;;;;;10.93;100.00;100111.97;4953084;28;20133;-81
2023/07/26 04:01:28;;;;;;;4.65;2.83;;;;;;;11.00;100.00;100106.44;4957463;28;20472;-84
2023/07/26 04:03:55;;;;;;;5.38;3.08;;;;;;;11.01;100.00;100107.31;4958646;28;20119;-84
2023/07/26 04:06:22;;;;;;;7.28;3.13;;;;;;;11.05;100.00;100111.63;4952220;28;20084;-83
2023/07/26 04:08:49;;;;;;;5.97;2.90;;;;;;;11.07;100.00;100117.72;4965269;28;20051;-84
2023/07/26 04:11:15;;;;;;;4.68;2.95;;;;;;;11.09;100.00;100118.53;4933566;28;20035;-84
2023/07/26 04:13:42;;;;;;;5.25;2.90;;;;;;;11.05;100.00;100116.91;4964830;28;20051;-84
2023/07/26 04:16:17;;;;;;;4.32;2.72;;;;;;;11.17;100.00;100116.50;4932548;28;20051;-84
2023/07/26 04:18:44;;;;;;;7.60;3.05;;;;;;;11.19;100.00;100121.78;4981150;28;20404;-83
2023/07/26 04:21:15;;;;;;;6.07;2.78;;;;;;;11.30;100.00;100130.22;5000048;28;20152;-84
2023/07/26 04:23:43;;;;;;;5.00;2.58;;;;;;;11.34;100.00;100129.19;4948408;28;20038;-83
2023/07/26 04:26:10;;;;;;;4.18;2.83;;;;;;;11.44;100.00;100132.44;4930148;28;20134;-85
2023/07/26 04:28:38;;;;;;;7.85;3.47;;;;;;;11.48;100.00;100136.69;4961203;28;20065;-84
2023/07/26 04:31:04;;;;;;;4.60;3.22;;;;;;;11.53;100.00;100134.78;4947227;28;20062;-84
2023/07/26 04:33:31;;;;;;;5.63;3.13;;;;;;;11.59;100.00;100129.25;4954817;28;20119;-84
2023/07/26 04:35:58;;;;;;;4.88;3.15;;;;;;;11.62;100.00;100129.19;4937801;28;20536;-84
2023/07/26 04:38:25;;;;;;;4.43;2.72;;;;;;;11.72;100.00;100133.25;4959859;28;20191;-84
2023/07/26 04:40:52;;;;;;;4.57;3.15;;;;;;;11.78;100.00;100135.69;4968063;28;20428;-86
2023/07/26 04:43:19;;;;;;;3.50;3.10;;;;;;;11.84;100.00;100139.91;4944047;28;20492;-84
2023/07/26 04:45:50;;;;;;;4.28;2.83;;;;;;;11.94;100.00;100143.13;4940961;28;20104;-84
2023/07/26 04:48:18;;;;;;;7.55;2.88;;;;;;;12.01;100.00;100144.63;4960641;28;20043;-85
2023/07/26 04:50:47;;;;;;;8.23;2.92;;;;;;;12.06;100.00;100142.72;4944450;28;20063;-84
2023/07/26 04:53:14;;;;;;;5.43;2.75;;;;;;;12.08;100.00;100146.16;4962294;28;20085;-84
2023/07/26 04:55:49;;;;;;;4.97;2.60;;;;;;;12.13;100.00;100141.56;4979079;28;20043;-84
2023/07/26 04:58:16;;;;;;;3.85;3.13;;;;;;;12.20;100.00;100139.59;4931949;28;20455;-84
2023/07/26 05:00:43;;;;;;;5.15;3.50;;;;;;;12.29;100.00;100142.78;4944653;28;20101;-85
2023/07/26 05:03:10;;;;;;;7.05;3.05;;;;;;;12.38;100.00;100142.44;4934411;28;20045;-85
2023/07/26 05:05:37;;;;;;;6.50;3.13;;;;;;;12.53;100.00;100146.31;4963637;28;20073;-85
2023/07/26 05:08:05;;;;;;;5.68;2.72;;;;;;;12.56;100.00;100150.63;4974387;28;20066;-83
2023/07/26 05:10:32;;;;;;;4.00;2.30;;;;;;;12.64;100.00;100152.06;4981418;28;20035;-83
2023/07/26 05:12:58;;;;;;;7.55;3.08;;;;;;;12.75;100.00;100150.81;4991469;28;20047;-82
2023/07/26 05:15:25;;;;;;;6.50;2.90;;;;;;;12.78;100.00;100148.94;4960807;28;20074;-84
2023/07/26 05:17:52;;;;;;;5.03;3.53;;;;;;;12.85;100.00;100153.03;4963898;28;20096;-83
2023/07/26 05:20:19;;;;;;;3.97;2.60;;;;;;;12.92;100.00;100149.25;4982590;28;20068;-84
2023/07/26 05:22:46;;;;;;;5.57;3.00;;;;;;;12.94;100.00;100158.00;4953085;28;20462;-83
2023/07/26 05:25:12;;;;;;;4.57;2.50;;;;;;;13.03;100.00;100159.47;4940977;28;20470;-84
2023/07/26 05:27:39;;;;;;;5.28;2.60;;;;;;;13.12;100.00;100150.28;4955765;28;20046;-84
2023/07/26 05:30:06;;;;;;;3.60;2.40;;;;;;;13.25;100.00;100156.84;4936630;28;20039;-83
2023/07/26 05:32:34;;;;;;;4.28;2.70;;;;;;;13.33;100.00;100153.91;4947722;28;20074;-84
2023/07/26 05:35:02;;;;;;;5.70;2.75;;;;;;;13.42;100.00;100150.88;4972080;28;20451;-83
2023/07/26 05:37:34;;;;;;;3.40;2.30;;;;;;;13.45;100.00;100148.97;4952083;28;20045;-83
2023/07/26 05:40:01;;;;;;;5.13;2.40;;;;;;;13.62;100.00;100155.34;4960527;28;20046;-84
2023/07/26 05:42:27;;;;;;;4.15;2.65;;;;;;;13.65;100.00;100156.13;4956696;28;20050;-86
2023/07/26 05:44:54;;;;;;;5.82;2.72;;;;;;;13.66;100.00;100162.28;4941188;28;20159;-86
2023/07/26 05:47:21;;;;;;;7.13;2.95;;;;;;;13.70;100.00;100170.03;4937582;28;20138;-85
2023/07/26 05:49:48;;;;;;;5.35;2.33;;;;;;;13.86;100.00;100159.66;4992152;28;20049;-84
2023/07/26 05:52:14;;;;;;;3.03;2.42;;;;;;;14.02;100.00;100159.88;4953386;28;20135;-83
2023/07/26 05:54:41;;;;;;;5.95;3.00;;;;;;;14.08;100.00;100159.63;4937532;28;20043;-83
2023/07/26 05:57:08;;;;;;;6.13;2.38;;;;;;;14.22;98.71;100156.38;4937363;28;20042;-84
2023/07/26 05:59:34;;;;;;;6.53;2.67;;;;;;;14.36;97.95;100160.13;4957908;28;20121;-84
2023/07/26 06:02:02;;;;;;;4.40;2.63;;;;;;;14.70;95.95;100158.66;4990967;28;20373;-83
2023/07/26 06:04:29;;;;;;;4.57;2.30;;;;;;;15.69;88.55;100148.66;4982671;28;20077;-83
2023/07/26 06:06:56;;;;;;;6.32;2.13;;;;;;;17.26;78.94;100157.28;4952169;28;20137;-82
2023/07/26 06:09:25;;;;;;;5.18;2.40;;;;;;;18.19;70.54;100146.56;4973022;28;20082;-84
2023/07/26 06:11:52;;;;;;;4.13;1.63;;;;;;;18.21;69.50;100145.50;4946976;28;20042;-85
2023/07/26 06:14:24;;;;;;;2.95;2.10;;;;;;;18.69;65.43;100150.66;4966126;28;20051;-83
2023/07/26 06:16:52;;;;;;;3.15;1.80;;;;;;;19.13;65.04;100151.38;4985509;28;20052;-84
2023/07/26 06:19:19;;;;;;;3.88;1.63;;;;;;;19.30;61.78;100157.47;4975732;28;20042;-84
2023/07/26 06:21:46;;;;;;;2.90;1.98;;;;;;;19.39;63.03;100149.72;4955533;28;20047;-84
2023/07/26 06:24:13;;;;;;;5.57;1.60;;;;;;;19.30;63.28;100157.47;4935527;28;20423;-85
2023/07/26 06:26:39;;;;;;;5.25;1.73;;;;;;;18.86;64.84;100152.28;4963670;28;20100;-84
2023/07/26 06:29:06;;;;;;;4.03;2.00;;;;;;;18.85;66.66;100154.09;4954441;28;20077;-84
2023/07/26 06:31:33;;;;;;;3.25;1.75;;;;;;;18.77;66.83;100162.63;4938074;28;20498;-86
2023/07/26 06:34:00;;;;;;;3.22;1.95;;;;;;;18.55;65.60;100160.34;4933140;28;20414;-84
2023/07/26 06:36:27;;;;;;;3.42;1.80;;;;;;;18.52;65.75;100157.88;5023469;28;20053;-85
2023/07/26 06:38:54;;;;;;;3.35;1.70;;;;;;;18.54;64.93;100150.63;4969582;28;20207;-84
2023/07/26 06:41:20;;;;;;;3.85;1.58;;;;;;;18.84;68.49;100152.38;4941777;28;20090;-84
2023/07/26 06:43:47;;;;;;;3.25;1.50;;;;;;;18.65;68.10;100159.78;4929240;28;20508;-83
2023/07/26 06:46:14;;;;;;;4.13;1.83;;;;;;;18.92;68.37;100155.44;4980374;28;21146;-84
2023/07/26 06:48:41;;;;;;;5.32;1.80;;;;;;;19.03;67.52;100155.63;4981654;28;20054;-83
2023/07/26 06:51:11;;;;;;;2.83;1.42;;;;;;;19.03;67.40;100160.97;4961166;28;20053;-85
2023/07/26 06:53:38;;;;;;;2.50;1.30;;;;;;;19.05;66.79;100163.53;4939924;28;20073;-84
2023/07/26 06:56:05;;;;;;;3.85;1.77;;;;;;;19.04;67.01;100165.38;4962481;28;20146;-84
2023/07/26 06:58:31;;;;;;;3.65;1.63;;;;;;;18.59;64.47;100163.72;4947564;28;20035;-83
2023/07/26 07:00:58;;;;;;;5.18;1.88;;;;;;;18.77;69.70;100175.13;4941264;28;20071;-84
2023/07/26 07:03:25;;;;;;;4.20;1.50;;;;;;;18.54;68.70;100161.31;4972820;28;20074;-83
2023/07/26 07:05:52;;;;;;;3.13;1.60;;;;;;;18.58;68.95;100164.66;4952045;28;20495;-84
2023/07/26 07:08:18;;;;;;;4.35;1.75;;;;;;;18.65;68.07;100173.16;4938871;28;20054;-84
2023/07/26 07:10:45;;;;;;;3.40;2.05;;;;;;;18.50;64.69;100164.28;4988991;28;20039;-83
2023/07/26 07:13:12;;;;;;;4.28;2.28;;;;;;;18.76;68.34;100165.38;4960978;28;20313;-84
2023/07/26 07:15:39;;;;;;;3.95;1.70;;;;;;;19.01;66.04;100170.06;4937632;28;20540;-84
2023/07/26 07:18:05;;;;;;;2.97;1.50;;;;;;;19.16;65.25;100161.03;4966824;28;20051;-82
2023/07/26 07:20:35;;;;;;;2.92;1.52;;;;;;;19.23;64.65;100166.88;5007152;28;20038;-82
2023/07/26 07:23:04;;;;;;;1.90;1.50;;;;;;;19.16;65.10;100173.56;4979665;28;20638;-82
2023/07/26 07:25:31;;;;;;;2.58;1.65;;;;;;;19.13;63.93;100162.09;4968801;28;20038;-82
2023/07/26 07:27:57;;;;;;;1.92;1.50;;;;;;;19.26;64.72;100164.88;4973191;28;20043;-81
2023/07/26 07:30:24;;;;;;;2.45;1.77;;;;;;;19.20;63.08;100161.72;4960189;28;20062;-80
2023/07/26 07:32:50;;;;;;;3.50;1.58;;;;;;;19.37;62.91;100174.88;4992278;28;20042;-80
2023/07/26 07:35:17;;;;;;;2.92;1.42;;;;;;;19.23;61.82;100177.56;4962400;28;20047;-81
2023/07/26 07:37:44;;;;;;;3.58;1.33;;;;;;;19.19;62.66;100171.56;4963598;28;20058;-81
2023/07/26 07:40:12;;;;;;;4.22;1.60;;;;;;;19.16;61.80;100173.56;4958877;28;20049;-80
2023/07/26 07:42:38;;;;;;;3.60;2.00;;;;;;;19.03;64.99;100178.84;4977445;28;20035;-80
2023/07/26 07:45:05;;;;;;;2.50;1.60;;;;;;;19.02;64.54;100179.81;4957647;28;20035;-81
2023/07/26 07:47:32;;;;;;;2.85;1.40;;;;;;;18.99;64.01;100178.16;4959983;28;20122;-80
2023/07/26 07:49:59;;;;;;;2.05;1.20;;;;;;;19.04;64.81;100177.91;4971934;28;20057;-80
2023/07/26 07:52:26;;;;;;;2.47;1.30;;;;;;;19.33;65.05;100179.56;4980246;28;20046;-79
2023/07/26 07:54:52;;;;;;;2.97;1.65;;;;;;;19.25;63.36;100175.66;4974729;28;20053;-80
2023/07/26 07:57:21;;;;;;;4.13;1.65;;;;;;;19.41;63.37;100177.25;4950968;28;20055;-79
2023/07/26 07:59:48;;;;;;;3.28;1.73;;;;;;;19.51;60.56;100182.91;4973757;28;20508;-79
2023/07/26 08:02:14;;;;;;;2.85;1.50;;;;;;;19.64;60.54;100172.25;4977449;28;20031;-81
2023/07/26 08:04:41;;;;;;;3.20;1.95;;;;;;;19.72;60.38;100182.47;4957773;28;20044;-77
2023/07/26 08:07:08;;;;;;;3.92;2.88;;;;;;;19.73;60.41;100181.50;4978477;28;20455;-78
2023/07/26 08:09:34;;;;;;;4.35;2.65;;;;;;;19.79;61.57;100183.78;4965489;28;20122;-80
2023/07/26 08:12:02;;;;;;;3.88;1.92;;;;;;;19.84;60.51;100178.97;4975817;28;20035;-80
2023/07/26 08:14:29;;;;;;;6.43;2.28;;;;;;;19.97;59.71;100185.25;4972511;28;20093;-80
2023/07/26 08:16:56;;;;;;;3.28;1.65;;;;;;;19.85;61.95;100184.25;4976842;28;20047;-79
2023/07/26 08:19:22;;;;;;;3.78;2.15;;;;;;;19.77;60.56;100188.41;4945773;28;20644;-81
2023/07/26 08:21:49;;;;;;;4.35;1.90;;;;;;;19.72;60.26;100196.72;4980172;28;20047;-80
2023/07/26 08:24:16;;;;;;;4.18;1.95;;;;;;;19.44;59.28;100192.28;4977542;28;20043;-80
2023/07/26 08:26:44;;;;;;;5.32;2.00;;;;;;;19.60;60.96;100198.41;4956780;28;20050;-79
2023/07/26 08:29:10;;;;;;;2.85;2.10;;;;;;;19.40;59.35;100190.75;4955746;28;20602;-81
2023/07/26 08:31:38;;;;;;;4.28;1.92;;;;;;;19.41;59.03;100193.31;4974943;28;20203;-81
2023/07/26 08:34:04;;;;;;;5.03;2.10;;;;;;;19.68;58.25;100189.88;4989991;28;20088;-81
2023/07/26 08:36:31;;;;;;;2.17;1.80;;;;;;;19.96;57.33;100184.38;4982850;28;20633;-81
2023/07/26 08:38:58;;;;;;;3.45;2.13;;;;;;;20.28;57.37;100188.53;4938972;28;20074;-79
2023/07/26 08:41:24;;;;;;;3.35;2.05;;;;;;;20.42;56.58;100185.75;4977402;28;20034;-79
2023/07/26 08:43:54;;;;;;;4.03;1.60;;;;;;;20.33;54.32;100191.75;4955571;28;20080;-80
2023/07/26 08:46:21;;;;;;;6.35;2.30;;;;;;;20.70;57.67;100185.59;4954945;28;20039;-81
2023/07/26 08:48:48;;;;;;;2.90;2.03;;;;;;;20.74;53.62;100192.47;4968372;28;20054;-82
2023/07/26 08:51:15;;;;;;;3.95;1.70;;;;;;;20.60;55.40;100189.03;4995100;28;20100;-80
2023/07/26 08:53:43;;;;;;;2.60;1.85;;;;;;;20.57;54.66;100200.84;5000232;28;20042;-81
2023/07/26 08:56:11;;;;;;;3.22;1.80;;;;;;;20.78;54.54;100185.06;4976985;28;20105;-80
2023/07/26 08:58:37;;;;;;;4.68;1.90;;;;;;;20.22;50.07;100189.81;4952666;28;20051;-79
2023/07/26 09:01:04;;;;;;;3.13;1.88;;;;;;;20.77;53.66;100181.53;4971074;28;20035;-81
2023/07/26 09:03:32;;;;;;;3.97;2.13;;;;;;;20.64;53.68;100182.50;4989012;28;20640;-81
2023/07/26 09:06:06;;;;;;;2.80;1.70;;;;;;;20.44;54.95;100190.09;4982706;28;20117;-80
2023/07/26 09:08:33;;;;;;;3.53;1.90;;;;;;;20.22;53.71;100189.81;4986251;28;20662;-81
2023/07/26 09:11:03;;;;;;;2.67;1.90;;;;;;;19.94;54.90;100199.72;4968385;28;20047;-80
2023/07/26 09:13:29;;;;;;;3.05;2.10;;;;;;;19.59;53.68;100195.78;4987134;28;20093;-79
2023/07/26 09:16:00;;;;;;;4.05;1.90;;;;;;;20.05;55.73;100193.63;4989993;28;20101;-80
2023/07/26 09:18:28;;;;;;;3.63;2.00;;;;;;;20.61;52.32;100191.63;4966469;28;20117;-81
2023/07/26 09:21:02;;;;;;;3.75;1.83;;;;;;;21.07;51.67;100191.91;4995048;28;20062;-80
2023/07/26 09:23:28;;;;;;;;;;;;;;;20.90;52.49;100186.88;5003417;28;20035;-79
2023/07/26 09:25:55;;;;;;;3.80;1.90;;;;;;;20.86;50.99;100196.13;4975446;28;20405;-79
2023/07/26 09:28:23;;;;;;;3.80;1.60;;;;;;;21.11;50.56;100187.19;5021021;28;20122;-80
2023/07/26 09:30:50;;;;;;;5.25;1.90;;;;;;;21.48;50.24;100187.22;4952850;28;20475;-79
2023/07/26 09:33:17;;;;;;;3.35;1.88;;;;;;;21.77;51.02;100194.00;4977467;28;20559;-80
2023/07/26 09:35:48;;;;;;;3.88;1.80;;;;;;;22.08;49.43;100180.97;4969857;28;20070;-80
2023/07/26 09:38:23;;;;;;;2.72;1.90;;;;;;;21.77;48.57;100188.63;4963533;28;20052;-79
2023/07/26 09:40:50;;;;;;;2.60;2.00;;;;;;;21.27;49.55;100186.94;4963259;28;20422;-80
2023/07/26 09:43:30;;;;;;;2.75;2.20;;;;;;;20.48;49.79;100194.28;4968532;28;20077;-81
2023/07/26 09:46:02;;;;;;;5.07;2.28;;;;;;;21.14;51.85;100184.28;4979812;28;20408;-80
2023/07/26 09:48:32;;;;;;;4.60;2.10;;;;;;;21.43;50.34;100186.69;4975087;28;20042;-78
2023/07/26 09:51:05;;;;;;;3.08;1.98;;;;;;;22.05;50.28;100182.03;5003333;28;20436;-78
2023/07/26 09:53:36;;;;;;;3.22;1.70;;;;;;;22.08;47.91;100178.28;5010170;28;20035;-77
2023/07/26 09:56:03;;;;;;;4.28;1.95;;;;;;;21.68;47.55;100186.59;4953756;28;20045;-77
2023/07/26 09:58:31;;;;;;;8.73;2.67;;;;;;;21.41;47.83;100186.81;4970604;28;20491;-80
2023/07/26 10:01:01;;;;;;;2.65;1.63;;;;;;;21.05;47.02;100196.53;4960271;28;20071;-81
2023/07/26 10:03:29;;;;;;;4.20;1.90;;;;;;;21.00;48.36;100192.44;4985440;28;20068;-80
2023/07/26 10:05:56;;;;;;;3.13;2.10;;;;;;;20.95;49.22;100189.25;4976812;28;20081;-80
2023/07/26 10:08:24;;;;;;;5.03;1.80;;;;;;;21.07;49.04;100193.72;4980017;28;20586;-80
2023/07/26 10:10:52;;;;;;;3.25;1.80;;;;;;;20.92;49.30;100194.81;4982921;28;20057;-80
2023/07/26 10:13:20;;;;;;;4.43;2.22;;;;;;;20.55;47.78;100196.56;4984444;28;20559;-80
2023/07/26 10:15:50;;;;;;;3.97;2.28;;;;;;;20.98;51.31;100194.41;5000830;28;20046;-80
2023/07/26 10:18:19;;;;;;;3.08;1.92;;;;;;;20.97;47.13;100201.59;4984197;28;20039;-81
2023/07/26 10:20:47;;;;;;;3.88;2.38;;;;;;;21.25;48.56;100194.25;4971227;28;20043;-79
2023/07/26 10:23:14;;;;;;;3.97;1.50;;;;;;;21.37;46.44;100184.47;4949745;28;20062;-80
2023/07/26 10:25:42;;;;;;;3.25;1.83;;;;;;;21.28;45.72;100181.50;4973603;28;20070;-79
2023/07/26 10:28:09;;;;;;;4.75;1.92;;;;;;;21.18;45.88;100184.91;4960501;28;20484;-80
2023/07/26 10:30:37;;;;;;;6.18;2.35;;;;;;;21.16;49.29;100179.63;4968814;28;20038;-78
2023/07/26 10:33:10;;;;;;;3.45;1.90;;;;;;;21.29;48.02;100182.34;4948367;28;20030;-80
2023/07/26 10:35:37;;;;;;;;;;;;;;;21.38;46.47;100179.00;4992393;28;20054;-80
2023/07/26 10:38:04;;;;;;;3.72;1.90;;;;;;;21.11;45.38;100181.81;4973783;28;19922;-80
2023/07/26 10:40:40;;;;;;;31.80;6.30;;;;;;;21.09;48.05;100178.34;4966507;28;20715;-80
2023/07/26 10:43:19;;;;;;;4.10;1.95;;;;;;;21.20;47.76;100182.97;4967239;28;20038;-81
2023/07/26 10:45:51;;;;;;;2.83;1.80;;;;;;;20.96;49.71;100194.50;4977373;28;20043;-80
2023/07/26 10:48:27;;;;;;;3.72;2.30;;;;;;;20.64;56.75;100204.81;4969915;28;20062;-81
2023/07/26 10:50:58;;;;;;;3.72;1.77;;;;;;;20.35;62.33;100201.44;4958353;28;20096;-82
2023/07/26 10:53:36;;;;;;;4.63;2.30;;;;;;;20.36;62.99;100197.78;4988471;28;20038;-81
2023/07/26 10:56:09;;;;;;;4.93;2.10;;;;;;;20.73;67.07;100193.44;4950107;28;20431;-81
2023/07/26 10:58:55;;;;;;;5.57;3.63;;;;;;;20.74;63.19;100194.28;4963266;28;20050;-81
2023/07/26 11:01:39;;;;;;;13.27;10.40;;;;;;;20.74;66.40;100187.09;5039111;28;20106;-82
2023/07/26 11:04:21;;;;;;;5.38;3.17;;;;;;;21.04;64.38;100178.72;4973475;28;20393;-80
2023/07/26 11:06:50;;;;;;;3.88;2.28;;;;;;;21.42;62.15;100179.63;4955982;28;20062;-82
2023/07/26 11:09:19;;;;;;;5.10;2.17;;;;;;;21.30;50.37;100176.84;4981286;28;20054;-81
2023/07/26 11:11:59;;;;;;;3.53;2.17;;;;;;;21.67;50.97;100174.13;4966222;28;20034;-81
2023/07/26 11:14:30;;;;;;;2.42;1.95;;;;;;;21.61;51.33;100175.47;4993963;28;20049;-81
2023/07/26 11:17:01;;;;;;;2.63;1.95;;;;;;;21.05;50.16;100183.09;4958447;28;20039;-80
2023/07/26 11:19:29;;;;;;;3.10;1.90;;;;;;;20.58;51.52;100177.53;4967170;28;20047;-80
2023/07/26 11:22:04;;;;;;;3.28;2.00;;;;;;;20.60;53.11;100173.81;4978354;28;20117;-81
2023/07/26 11:24:31;;;;;;;3.65;1.98;;;;;;;20.93;49.64;100177.72;4963238;28;20142;-81
2023/07/26 11:27:05;;;;;;;43.90;32.63;;;;;;;20.87;48.83;100171.00;4971726;28;20658;-81
2023/07/26 11:29:33;;;;;;;6.85;5.03;;;;;;;21.10;48.68;100174.69;4961802;28;20047;-80